MOL Explorer — 3EKT8 — position and weather

sailwx.info

Track history (hours):
 
Tides and Currents Weather Stations Pressure Air Temp Water Temp Dewpoint Dewpoint Depression Visibility Wind Speed Wind Dir Waves Ship Positions

MOL Explorer

Last reported at 2017-Jan-18 00:16 UTC. Time now 2017-Jan-18 22:04 UTC.
Position N 33°53' E 134°59'.

Length 293 m; draft 10.1 m.

Type: Ship (hazmat cat A). MMSI: 372827000.

Date/timePositionNaut miles runAvg speedWind from/ knotsBaromVisibWave heightAir tempDewpointWater temp
2017-Jan-18 00:16N 33°53' E 134°59'1014.5
2017-Jan-17 23:33N 34°03' E 134°58'7 7.2
2017-Jan-17 22:33N 34°10' E 134°55'1 0.7
2017-Jan-17 21:33N 34°10' E 134°56'7 7.1
2017-Jan-17 20:33N 34°17' E 134°59'1818.4
2017-Jan-17 19:33N 34°31' E 135°12'1312.8
2017-Jan-17 18:33N 34°39' E 135°25'1 0.3
2017-Jan-17 14:26N 34°38' E 135°26'0 0.0
2017-Jan-17 11:32N 34°38' E 135°26'0 0.0
2017-Jan-17 10:26N 34°38' E 135°26'0 0.0
2017-Jan-17 08:32N 34°38' E 135°26'0 0.0
2017-Jan-17 05:32N 34°38' E 135°26'0 0.0
2017-Jan-17 03:32N 34°38' E 135°26'0 0.0
2017-Jan-17 02:26N 34°38' E 135°26'0 0.0
2017-Jan-16 18:20N 34°38' E 135°26'0 0.0
2017-Jan-16 16:26N 34°38' E 135°26'0 0.0
2017-Jan-16 15:32N 34°38' E 135°26'0 0.0
2017-Jan-16 11:33N 34°38' E 135°26'6 6.3
2017-Jan-16 10:33N 34°36' E 135°19'1817.5
2017-Jan-16 09:33N 34°23' E 135°05'1414.3
2017-Jan-16 08:33N 34°09' E 134°60'  
2017-Jan-08 15:32N 01°15' E 104°01'1110.9
2017-Jan-08 14:33N 01°16' E 103°51'0 0.1
2017-Jan-08 13:31N 01°16' E 103°51'0 0.0
2017-Jan-08 12:19N 01°16' E 103°51'0 0.0
2017-Jan-08 11:31N 01°16' E 103°51'0 0.0
2017-Jan-08 09:28N 01°16' E 103°51'0 0.0
2017-Jan-08 08:31N 01°16' E 103°51'0 0.0
2017-Jan-08 07:25N 01°16' E 103°51'0 0.0
2017-Jan-08 06:31N 01°16' E 103°51'0 0.0
2017-Jan-08 05:31N 01°16' E 103°51'0 0.0
2017-Jan-08 04:31N 01°16' E 103°51'0 0.0
2017-Jan-08 03:31N 01°16' E 103°51'0 0.0
2017-Jan-08 02:31N 01°16' E 103°51'0 0.0
2017-Jan-08 01:31N 01°16' E 103°51'1 1.2
2017-Jan-08 00:33N 01°15' E 103°52'  
Track history (hours):
 
Tides and Currents Weather Stations Pressure Air Temp Water Temp Dewpoint Dewpoint Depression Visibility Wind Speed Wind Dir Waves Ship Positions

MOL Explorer

Last reported at 2017-Jan-18 00:16 UTC. Time now 2017-Jan-18 22:04 UTC.
Position N 33°53' E 134°59'.

Length 293 m; draft 10.1 m.

Type: Ship (hazmat cat A). MMSI: 372827000.

Date/timePositionNaut miles runAvg speedWind from/ knotsBaromVisibWave heightAir tempDewpointWater temp
2017-Jan-18 00:16N 33°53' E 134°59'1014.5
2017-Jan-17 23:33N 34°03' E 134°58'7 7.2
2017-Jan-17 22:33N 34°10' E 134°55'1 0.7
2017-Jan-17 21:33N 34°10' E 134°56'7 7.1
2017-Jan-17 20:33N 34°17' E 134°59'1818.4
2017-Jan-17 19:33N 34°31' E 135°12'1312.8
2017-Jan-17 18:33N 34°39' E 135°25'1 0.3
2017-Jan-17 14:26N 34°38' E 135°26'0 0.0
2017-Jan-17 11:32N 34°38' E 135°26'0 0.0
2017-Jan-17 10:26N 34°38' E 135°26'0 0.0
2017-Jan-17 08:32N 34°38' E 135°26'0 0.0
2017-Jan-17 05:32N 34°38' E 135°26'0 0.0
2017-Jan-17 03:32N 34°38' E 135°26'0 0.0
2017-Jan-17 02:26N 34°38' E 135°26'0 0.0
2017-Jan-16 18:20N 34°38' E 135°26'0 0.0
2017-Jan-16 16:26N 34°38' E 135°26'0 0.0
2017-Jan-16 15:32N 34°38' E 135°26'0 0.0
2017-Jan-16 11:33N 34°38' E 135°26'6 6.3
2017-Jan-16 10:33N 34°36' E 135°19'1817.5
2017-Jan-16 09:33N 34°23' E 135°05'1414.3
2017-Jan-16 08:33N 34°09' E 134°60'  
2017-Jan-08 15:32N 01°15' E 104°01'1110.9
2017-Jan-08 14:33N 01°16' E 103°51'0 0.1
2017-Jan-08 13:31N 01°16' E 103°51'0 0.0
2017-Jan-08 12:19N 01°16' E 103°51'0 0.0
2017-Jan-08 11:31N 01°16' E 103°51'0 0.0
2017-Jan-08 09:28N 01°16' E 103°51'0 0.0
2017-Jan-08 08:31N 01°16' E 103°51'0 0.0
2017-Jan-08 07:25N 01°16' E 103°51'0 0.0
2017-Jan-08 06:31N 01°16' E 103°51'0 0.0
2017-Jan-08 05:31N 01°16' E 103°51'0 0.0
2017-Jan-08 04:31N 01°16' E 103°51'0 0.0
2017-Jan-08 03:31N 01°16' E 103°51'0 0.0
2017-Jan-08 02:31N 01°16' E 103°51'0 0.0
2017-Jan-08 01:31N 01°16' E 103°51'1 1.2
2017-Jan-08 00:33N 01°15' E 103°52'  

Dump ship's entire track history